Time;durP1;ratioP1;P1;durP2;ratioP2;P2;SDS_P1;SDS_P2;PMS_P1;PMS_P2;Temp;Humidity;BMP_temperature;BMP_pressure;BME280_temperature;BME280_humidity;BME280_pressure;Samples;Min_cycle;Max_cycle;Signal;HPM_P1;HPM_P2
2023/08/27 00:04:15;;;;;;;;;;;17.10;99.90;;;;;;6664139;89;20806;-76
2023/08/27 00:14:16;;;;;;;;;;;17.00;99.90;;;;;;6651642;89;20089;-75
2023/08/27 00:24:16;;;;;;;;;;;16.90;99.90;;;;;;6654239;89;20116;-76
2023/08/27 00:34:16;;;;;;;;;;;16.80;99.90;;;;;;6654254;89;20229;-75
2023/08/27 00:44:17;;;;;;;;;;;16.70;99.90;;;;;;6658548;89;20127;-76
2023/08/27 00:54:18;;;;;;;;;;;16.50;99.90;;;;;;6659264;89;20148;-76
2023/08/27 01:04:18;;;;;;;;;;;16.40;99.90;;;;;;6665312;89;20053;-76
2023/08/27 01:14:19;;;;;;;;;;;16.20;99.90;;;;;;6657108;89;20244;-75
2023/08/27 01:24:20;;;;;;;;;;;16.00;99.90;;;;;;6653042;89;20104;-75
2023/08/27 01:34:21;;;;;;;;;;;15.90;99.90;;;;;;6653558;89;20943;-75
2023/08/27 01:44:22;;;;;;;;;;;15.90;99.90;;;;;;6653585;89;20592;-75
2023/08/27 01:54:22;;;;;;;;;;;15.90;99.90;;;;;;6653825;89;20085;-75
2023/08/27 02:04:23;;;;;;;;;;;15.90;99.90;;;;;;6653964;89;20056;-75
2023/08/27 02:14:23;;;;;;;;;;;15.80;99.90;;;;;;6652497;89;20800;-75
2023/08/27 02:24:23;;;;;;;;;;;15.90;99.90;;;;;;6718747;77;20058;-73
2023/08/27 02:34:24;;;;;;;;;;;15.90;99.90;;;;;;6725163;88;20570;-75
2023/08/27 02:44:24;;;;;;;;;;;16.00;99.90;;;;;;6723396;88;20081;-75
2023/08/27 02:54:25;;;;;;;;;;;15.80;99.90;;;;;;6721415;88;20272;-74
2023/08/27 03:04:25;;;;;;;;;;;15.80;99.90;;;;;;6725447;88;20050;-73
2023/08/27 03:14:26;;;;;;;;;;;15.60;99.90;;;;;;6722892;88;20073;-75
2023/08/27 03:24:26;;;;;;;;;;;15.60;99.90;;;;;;6738550;88;20079;-74
2023/08/27 03:34:27;;;;;;;;;;;15.60;99.90;;;;;;6739957;87;20184;-74
2023/08/27 03:44:27;;;;;;;;;;;15.60;99.90;;;;;;6739481;88;20184;-74
2023/08/27 03:54:28;;;;;;;;;;;15.50;99.90;;;;;;6740161;88;20172;-74
2023/08/27 04:04:28;;;;;;;;;;;15.50;99.90;;;;;;6742703;88;20068;-74
2023/08/27 04:14:29;;;;;;;;;;;15.50;99.90;;;;;;6740696;88;20079;-74
2023/08/27 04:24:29;;;;;;;;;;;15.50;99.90;;;;;;6737241;88;20065;-73
2023/08/27 04:34:30;;;;;;;;;;;15.40;99.90;;;;;;6741751;88;20531;-74
2023/08/27 04:44:31;;;;;;;;;;;15.50;99.90;;;;;;6740418;87;20058;-75
2023/08/27 04:54:31;;;;;;;;;;;15.60;99.90;;;;;;6739838;88;20218;-74
2023/08/27 05:04:32;;;;;;;;;;;15.60;99.90;;;;;;6743440;87;20244;-74
2023/08/27 05:14:32;;;;;;;;;;;15.70;99.90;;;;;;6747044;87;20049;-75
2023/08/27 05:24:33;;;;;;;;;;;15.80;99.90;;;;;;6740237;88;20066;-74
2023/08/27 05:34:33;;;;;;;;;;;16.00;99.90;;;;;;6744970;87;20062;-75
2023/08/27 05:44:33;;;;;;;;;;;16.50;99.90;;;;;;6740838;88;20089;-74
2023/08/27 05:54:34;;;;;;;;;;;16.70;99.90;;;;;;6739969;87;20525;-74
2023/08/27 06:04:34;;;;;;;;;;;16.50;99.90;;;;;;6744039;88;20058;-74
2023/08/27 06:14:35;;;;;;;;;;;16.50;99.90;;;;;;6738931;87;20085;-74
2023/08/27 06:24:35;;;;;;;;;;;16.50;99.90;;;;;;6738370;88;20619;-74
2023/08/27 06:34:36;;;;;;;;;;;16.60;99.90;;;;;;6737715;88;20088;-74
2023/08/27 06:44:36;;;;;;;;;;;16.60;99.90;;;;;;6744462;88;20067;-74
2023/08/27 06:54:36;;;;;;;;;;;16.70;99.90;;;;;;6744406;88;20121;-74
2023/08/27 07:04:37;;;;;;;;;;;16.70;99.90;;;;;;6745059;87;20525;-72
2023/08/27 07:14:38;;;;;;;;;;;17.20;99.90;;;;;;6740793;87;20115;-75
2023/08/27 07:24:38;;;;;;;;;;;17.40;99.90;;;;;;6747243;88;20121;-74
2023/08/27 07:34:39;;;;;;;;;;;17.90;99.90;;;;;;6739938;88;20065;-75
2023/08/27 07:44:39;;;;;;;;;;;18.50;99.90;;;;;;6741050;87;20204;-75
2023/08/27 07:54:39;;;;;;;;;;;18.80;99.90;;;;;;6741959;87;20071;-76
2023/08/27 08:04:40;;;;;;;;;;;19.30;99.90;;;;;;6739675;88;20059;-74
2023/08/27 08:14:40;;;;;;;;;;;20.10;99.90;;;;;;6737969;88;20053;-75
2023/08/27 08:24:41;;;;;;;;;;;20.80;99.90;;;;;;6734588;77;20075;-75
2023/08/27 08:34:41;;;;;;;;;;;20.70;99.90;;;;;;6730736;88;20983;-76
2023/08/27 08:44:50;;;;;;;;;;;20.80;99.90;;;;;;6726588;88;20083;-75
2023/08/27 08:54:52;;;;;;;;;;;21.20;99.90;;;;;;6723409;88;20106;-76
2023/08/27 09:04:54;;;;;;;;;;;21.60;99.90;;;;;;6722332;88;20100;-75
2023/08/27 09:14:54;;;;;;;;;;;21.40;99.90;;;;;;6725139;88;20261;-76
2023/08/27 09:24:55;;;;;;;;;;;21.00;99.90;;;;;;6730232;88;20141;-76
2023/08/27 09:34:59;;;;;;;;;;;20.90;99.90;;;;;;6728148;88;20046;-77
2023/08/27 09:44:59;;;;;;;;;;;21.00;99.90;;;;;;6725521;88;20082;-76
2023/08/27 09:55:00;;;;;;;;;;;21.10;99.90;;;;;;6727107;88;20110;-74
2023/08/27 10:05:01;;;;;;;;;;;20.80;99.90;;;;;;6730856;88;20091;-73
2023/08/27 10:15:03;;;;;;;;;;;20.80;99.90;;;;;;6731644;88;20129;-74
2023/08/27 10:25:06;;;;;;;;;;;21.40;99.90;;;;;;6729688;88;20059;-73
2023/08/27 10:35:09;;;;;;;;;;;22.60;99.90;;;;;;6737646;88;20076;-75
2023/08/27 10:45:18;;;;;;;;;;;23.50;99.90;;;;;;6730462;88;20201;-76
2023/08/27 10:55:20;;;;;;;;;;;24.60;99.90;;;;;;6737659;88;20046;-76
2023/08/27 11:05:28;;;;;;;;;;;25.00;99.90;;;;;;6733897;88;20071;-76
2023/08/27 11:15:32;;;;;;;;;;;25.90;99.90;;;;;;6735096;88;20498;-75
2023/08/27 11:25:33;;;;;;;;;;;25.20;99.90;;;;;;6737886;88;20106;-76
2023/08/27 11:35:36;;;;;;;;;;;25.70;98.70;;;;;;6736334;88;20069;-76
2023/08/27 11:45:37;;;;;;;;;;;26.50;97.40;;;;;;6734334;88;20122;-75
2023/08/27 11:55:38;;;;;;;;;;;25.90;96.30;;;;;;6727530;88;20077;-75
2023/08/27 12:05:38;;;;;;;;;;;24.50;96.70;;;;;;6728641;88;20100;-75
2023/08/27 12:15:40;;;;;;;;;;;23.50;98.60;;;;;;6727243;88;20480;-75
2023/08/27 12:25:46;;;;;;;;;;;23.40;98.00;;;;;;6728871;88;20734;-76
2023/08/27 12:35:47;;;;;;;;;;;25.90;96.60;;;;;;6732703;88;20090;-74
2023/08/27 12:45:48;;;;;;;;;;;27.30;94.50;;;;;;6728816;88;20509;-77
2023/08/27 12:55:48;;;;;;;;;;;27.70;93.30;;;;;;6734364;88;20055;-75
2023/08/27 13:05:49;;;;;;;;;;;26.00;93.30;;;;;;6735909;88;20576;-76
2023/08/27 13:15:49;;;;;;;;;;;25.50;94.00;;;;;;6731819;88;20184;-75
2023/08/27 13:25:50;;;;;;;;;;;25.00;94.60;;;;;;6733282;88;20090;-76
2023/08/27 13:35:50;;;;;;;;;;;25.70;94.30;;;;;;6730502;88;20113;-77
2023/08/27 13:45:51;;;;;;;;;;;25.60;94.50;;;;;;6733640;88;20170;-77
2023/08/27 13:55:51;;;;;;;;;;;24.90;95.00;;;;;;6727876;88;20173;-77
2023/08/27 14:05:52;;;;;;;;;;;25.00;95.30;;;;;;6727619;88;20133;-77
2023/08/27 14:15:54;;;;;;;;;;;25.70;95.10;;;;;;6731867;88;20042;-77
2023/08/27 14:25:54;;;;;;;;;;;24.90;94.70;;;;;;6711170;76;20076;-75
2023/08/27 14:35:55;;;;;;;;;;;23.40;94.40;;;;;;6707454;88;20069;-76
2023/08/27 14:45:55;;;;;;;;;;;22.40;95.00;;;;;;6708771;88;20063;-75
2023/08/27 14:55:56;;;;;;;;;;;22.40;94.40;;;;;;6711514;88;20479;-75
2023/08/27 15:05:56;;;;;;;;;;;22.60;94.00;;;;;;6713788;88;20081;-75
2023/08/27 15:15:57;;;;;;;;;;;23.20;94.00;;;;;;6710025;88;20125;-75
2023/08/27 15:25:57;;;;;;;;;;;23.30;93.70;;;;;;6714877;88;20058;-77
2023/08/27 15:35:58;;;;;;;;;;;22.70;94.00;;;;;;6708815;88;20497;-77
2023/08/27 15:45:59;;;;;;;;;;;22.40;95.00;;;;;;6712176;88;20188;-75
2023/08/27 15:55:59;;;;;;;;;;;22.00;96.10;;;;;;6712426;88;20095;-75
2023/08/27 16:06:00;;;;;;;;;;;22.60;93.90;;;;;;6704347;88;20707;-75
2023/08/27 16:16:01;;;;;;;;;;;22.10;98.30;;;;;;6698426;88;20186;-75
2023/08/27 16:26:01;;;;;;;;;;;22.00;99.20;;;;;;6699168;88;20088;-75
2023/08/27 16:36:02;;;;;;;;;;;21.60;99.90;;;;;;6706562;88;20139;-76
2023/08/27 16:46:02;;;;;;;;;;;21.20;99.90;;;;;;6717186;88;20106;-76
2023/08/27 16:56:03;;;;;;;;;;;21.30;99.90;;;;;;6710536;88;20102;-76
2023/08/27 17:06:03;;;;;;;;;;;21.10;99.90;;;;;;6718923;88;20148;-75
2023/08/27 17:16:05;;;;;;;;;;;20.40;99.90;;;;;;6715438;88;20100;-77
2023/08/27 17:26:06;;;;;;;;;;;20.10;99.90;;;;;;6706269;88;20186;-74
2023/08/27 17:36:06;;;;;;;;;;;19.80;99.90;;;;;;6709165;88;20059;-76
2023/08/27 17:46:07;;;;;;;;;;;19.70;99.90;;;;;;6714236;88;20055;-75
2023/08/27 17:56:07;;;;;;;;;;;19.50;99.90;;;;;;6705234;88;20064;-75
2023/08/27 18:06:07;;;;;;;;;;;19.40;99.90;;;;;;6712130;88;20051;-74
2023/08/27 18:16:08;;;;;;;;;;;19.10;99.90;;;;;;6708566;88;20641;-75
2023/08/27 18:26:08;;;;;;;;;;;18.80;99.90;;;;;;6707547;88;20088;-74
2023/08/27 18:36:09;;;;;;;;;;;18.30;99.90;;;;;;6709642;88;20055;-74
2023/08/27 18:46:09;;;;;;;;;;;18.00;99.90;;;;;;6707455;88;20061;-74
2023/08/27 18:56:10;;;;;;;;;;;17.70;99.90;;;;;;6714426;88;20081;-73
2023/08/27 19:06:11;;;;;;;;;;;17.40;99.90;;;;;;6714398;88;20054;-74
2023/08/27 19:16:11;;;;;;;;;;;17.20;99.90;;;;;;6709190;88;20534;-75
2023/08/27 19:26:11;;;;;;;;;;;17.00;99.90;;;;;;6712372;88;20132;-75
2023/08/27 19:36:12;;;;;;;;;;;16.70;99.90;;;;;;6715387;88;20046;-74
2023/08/27 19:46:13;;;;;;;;;;;16.40;99.90;;;;;;6720735;88;20226;-76
2023/08/27 19:56:14;;;;;;;;;;;16.40;99.90;;;;;;6715946;88;20075;-76
2023/08/27 20:06:14;;;;;;;;;;;16.30;99.90;;;;;;6716947;88;20081;-74
2023/08/27 20:16:15;;;;;;;;;;;16.10;99.90;;;;;;6711514;88;20499;-76
2023/08/27 20:26:15;;;;;;;;;;;16.00;99.90;;;;;;6725890;77;20086;-74
2023/08/27 20:36:16;;;;;;;;;;;16.00;99.90;;;;;;6712386;88;20055;-75
2023/08/27 20:46:17;;;;;;;;;;;15.80;99.90;;;;;;6706778;88;20161;-76
2023/08/27 20:56:17;;;;;;;;;;;15.90;99.90;;;;;;6712877;88;20067;-76
2023/08/27 21:06:18;;;;;;;;;;;15.80;99.90;;;;;;6710219;88;20173;-74
2023/08/27 21:16:18;;;;;;;;;;;15.80;99.90;;;;;;6714146;88;20244;-75
2023/08/27 21:26:18;;;;;;;;;;;15.80;99.90;;;;;;6712692;88;20131;-75
2023/08/27 21:36:19;;;;;;;;;;;15.60;99.90;;;;;;6711730;88;20148;-75
2023/08/27 21:46:19;;;;;;;;;;;15.20;99.90;;;;;;6711740;88;20100;-76
2023/08/27 21:56:20;;;;;;;;;;;14.90;99.90;;;;;;6713637;88;20125;-76
2023/08/27 22:06:20;;;;;;;;;;;14.80;99.90;;;;;;6714375;88;20054;-76
2023/08/27 22:16:21;;;;;;;;;;;14.70;99.90;;;;;;6716845;88;20054;-75
2023/08/27 22:26:21;;;;;;;;;;;14.60;99.90;;;;;;6713159;88;20072;-76
2023/08/27 22:36:22;;;;;;;;;;;14.60;99.90;;;;;;6709308;88;20054;-76
2023/08/27 22:46:22;;;;;;;;;;;14.60;99.90;;;;;;6712632;88;20547;-76
2023/08/27 22:56:23;;;;;;;;;;;14.50;99.90;;;;;;6710354;88;20166;-75
2023/08/27 23:06:23;;;;;;;;;;;14.60;99.90;;;;;;6721385;88;20317;-75
2023/08/27 23:16:23;;;;;;;;;;;14.60;99.90;;;;;;6705177;88;20186;-75
2023/08/27 23:26:24;;;;;;;;;;;14.40;99.90;;;;;;6713469;88;20067;-76
2023/08/27 23:36:25;;;;;;;;;;;14.30;99.90;;;;;;6713793;88;20083;-76
2023/08/27 23:46:25;;;;;;;;;;;14.40;99.90;;;;;;6707332;88;20739;-76
2023/08/27 23:56:25;;;;;;;;;;;14.20;99.90;;;;;;6714381;88;20063;-76
